createdAt,value
2022-10-05T00:02:38.090Z,11.02
2022-10-05T00:17:42.555Z,10.95
2022-10-05T00:32:46.924Z,10.80
2022-10-05T00:48:09.284Z,10.65
2022-10-05T01:03:51.063Z,10.62
2022-10-05T01:19:40.978Z,10.76
2022-10-05T01:34:49.830Z,10.83
2022-10-05T01:50:04.926Z,10.72
2022-10-05T02:05:17.068Z,10.75
2022-10-05T02:20:27.955Z,10.91
2022-10-05T02:35:31.227Z,10.90
2022-10-05T02:51:03.966Z,10.92
2022-10-05T03:06:20.869Z,10.96
2022-10-05T03:21:53.331Z,11.01
2022-10-05T03:37:07.470Z,11.08
2022-10-05T03:52:23.499Z,11.08
2022-10-05T04:07:47.005Z,11.07
2022-10-05T04:22:54.940Z,11.17
2022-10-05T04:38:23.185Z,11.23
2022-10-05T04:53:32.412Z,11.27
2022-10-05T05:09:16.792Z,11.35
2022-10-05T05:24:45.027Z,11.45
2022-10-05T05:40:25.269Z,11.42
2022-10-05T05:55:39.680Z,11.49
2022-10-05T06:10:49.875Z,11.59
2022-10-05T06:26:10.875Z,11.81
2022-10-05T06:41:37.714Z,12.17
2022-10-05T06:57:01.676Z,12.54
2022-10-05T07:12:27.745Z,12.71
2022-10-05T07:27:37.445Z,13.22
2022-10-05T07:43:11.047Z,14.26
2022-10-05T07:58:27.830Z,14.66
2022-10-05T08:13:47.890Z,14.67
2022-10-05T08:29:13.912Z,14.98
2022-10-05T08:44:49.849Z,15.45
2022-10-05T09:00:06.707Z,15.38
2022-10-05T09:15:42.955Z,15.41
2022-10-05T09:30:58.140Z,15.69
2022-10-05T09:46:40.675Z,16.05
2022-10-05T10:02:30.824Z,16.88
2022-10-05T10:17:51.238Z,17.93
2022-10-05T10:33:05.917Z,18.04
2022-10-05T10:48:21.411Z,18.15
2022-10-05T11:03:46.686Z,18.17
2022-10-05T11:19:11.609Z,18.04
2022-10-05T11:34:36.989Z,18.17
2022-10-05T11:49:49.079Z,18.16
2022-10-05T12:04:59.457Z,18.36
2022-10-05T12:20:12.052Z,18.72
2022-10-05T12:35:43.929Z,19.03
2022-10-05T12:50:54.079Z,19.12
2022-10-05T13:06:15.848Z,18.83
2022-10-05T13:21:26.775Z,18.47
2022-10-05T13:36:56.928Z,18.15
2022-10-05T13:52:00.702Z,17.96
2022-10-05T14:07:44.921Z,17.85
2022-10-05T14:22:58.125Z,17.88
2022-10-05T14:38:03.666Z,18.30
2022-10-05T14:53:11.013Z,18.47
2022-10-05T15:08:34.314Z,18.01
2022-10-05T15:23:47.755Z,17.58
2022-10-05T15:39:04.006Z,17.33
2022-10-05T15:54:41.753Z,17.03
2022-10-05T16:10:23.912Z,16.84
2022-10-05T16:25:47.789Z,16.45
2022-10-05T16:41:23.429Z,16.16
2022-10-05T16:57:04.429Z,15.97
2022-10-05T17:12:31.048Z,15.81
2022-10-05T17:27:56.808Z,15.69
2022-10-05T17:43:20.671Z,15.64
2022-10-05T17:58:28.887Z,15.51
2022-10-05T18:13:50.353Z,15.27
2022-10-05T18:29:14.571Z,14.98
2022-10-05T18:44:32.558Z,14.76
2022-10-05T18:59:36.614Z,14.69
2022-10-05T19:14:49.108Z,14.56
2022-10-05T19:30:05.538Z,14.48
2022-10-05T19:45:16.828Z,14.41
2022-10-05T20:00:26.066Z,14.26
2022-10-05T20:15:51.553Z,14.15
2022-10-05T20:30:55.728Z,14.05
2022-10-05T20:45:58.779Z,14.00
2022-10-05T21:01:20.783Z,13.93
2022-10-05T21:16:25.213Z,13.85
2022-10-05T21:31:29.301Z,13.83
2022-10-05T21:46:35.348Z,13.80
2022-10-05T22:01:38.828Z,13.68
2022-10-05T22:16:42.958Z,13.61
2022-10-05T22:31:49.003Z,13.74
2022-10-05T22:46:52.130Z,13.91
2022-10-05T23:01:55.403Z,13.99
2022-10-05T23:16:58.626Z,13.84
2022-10-05T23:32:01.632Z,13.59
2022-10-05T23:47:04.775Z,13.46
